Time;durP1;ratioP1;P1;durP2;ratioP2;P2;SDS_P1;SDS_P2;PMS_P1;PMS_P2;Temp;Humidity;BMP_temperature;BMP_pressure;BME280_temperature;BME280_humidity;BME280_pressure;Samples;Min_cycle;Max_cycle;Signal;HPM_P1;HPM_P2
2023/10/07 00:00:48;;;;;;;6.70;2.50;;;;;;;13.28;36.99;101354.70;107810;1281;21991;-58
2023/10/07 00:03:16;;;;;;;7.20;2.40;;;;;;;13.32;37.02;101353.08;107877;1283;23775;-57
2023/10/07 00:05:42;;;;;;;6.10;2.40;;;;;;;13.37;37.02;101344.92;107863;1282;21997;-71
2023/10/07 00:08:12;;;;;;;6.40;2.60;;;;;;;13.42;36.93;101337.86;107857;1289;22012;-70
2023/10/07 00:10:38;;;;;;;5.20;2.00;;;;;;;13.46;37.00;101340.83;107817;1283;21990;-71
2023/10/07 00:13:09;;;;;;;8.00;2.10;;;;;;;13.51;37.02;101338.13;107839;1283;22061;-58
2023/10/07 00:15:36;;;;;;;;;;;;;;;13.56;37.01;101335.98;107985;1289;22843;-71
2023/10/07 00:20:45;;;;;;;6.30;2.30;;;;;;;13.60;36.90;101328.36;107860;1283;22461;-58
2023/10/07 00:23:15;;;;;;;7.40;2.20;;;;;;;13.59;36.94;101325.55;107858;1280;22073;-71
2023/10/07 00:25:41;;;;;;;6.70;2.50;;;;;;;13.56;36.92;101323.99;107835;1289;21998;-71
2023/10/07 00:28:24;;;;;;;10.00;2.50;;;;;;;13.54;36.99;101325.59;107794;1289;21995;-71
2023/10/07 00:30:50;;;;;;;5.50;2.60;;;;;;;13.52;37.02;101325.61;107852;1289;22001;-58
2023/10/07 00:33:20;;;;;;;6.90;2.20;;;;;;;13.53;37.38;101323.13;107842;1283;21993;-58
2023/10/07 00:35:49;;;;;;;4.90;1.90;;;;;;;13.56;37.38;101325.39;107863;1289;23151;-58
2023/10/07 00:38:15;;;;;;;5.90;2.00;;;;;;;13.59;37.53;101322.02;107969;1283;21990;-57
2023/10/07 00:40:52;;;;;;;6.70;2.00;;;;;;;13.60;37.55;101325.89;107830;1289;21994;-70
2023/10/07 00:43:27;;;;;;;4.90;1.90;;;;;;;13.57;37.57;101321.86;107857;1289;21997;-58
2023/10/07 00:46:20;;;;;;;7.40;2.40;;;;;;;13.53;37.60;101319.09;107874;1283;21992;-58
2023/10/07 00:48:48;;;;;;;6.40;2.50;;;;;;;13.50;37.44;101314.52;107910;1282;22963;-57
2023/10/07 00:51:24;;;;;;;4.60;2.30;;;;;;;13.49;37.59;101316.47;107875;1279;22054;-72
2023/10/07 00:54:01;;;;;;;5.70;2.00;;;;;;;13.49;37.61;101317.70;107906;1289;22026;-58
2023/10/07 00:56:27;;;;;;;5.00;2.20;;;;;;;13.46;37.44;101316.67;107949;1286;21996;-58
2023/10/07 00:58:53;;;;;;;4.90;2.30;;;;;;;13.47;37.60;101316.67;107784;1283;22074;-71
2023/10/07 01:01:19;;;;;;;6.80;2.20;;;;;;;13.51;37.53;101320.15;107859;1283;22032;-70
2023/10/07 01:03:51;;;;;;;4.80;2.30;;;;;;;13.55;37.56;101318.52;107959;1280;21995;-57
2023/10/07 01:06:26;;;;;;;7.90;2.10;;;;;;;13.60;37.63;101317.96;107886;1276;22015;-58
2023/10/07 01:09:03;;;;;;;5.80;2.40;;;;;;;13.65;37.64;101315.44;107839;1282;21992;-72
2023/10/07 01:11:29;;;;;;;6.00;1.90;;;;;;;13.71;37.63;101315.89;107867;1289;21957;-71
2023/10/07 01:14:00;;;;;;;4.50;2.20;;;;;;;13.77;37.64;101315.13;107898;1282;21990;-72
2023/10/07 01:16:40;;;;;;;5.90;2.30;;;;;;;13.83;37.80;101308.55;107784;1277;21993;-72
2023/10/07 01:21:58;;;;;;;4.50;2.50;;;;;;;13.93;37.72;101301.55;107987;1289;21992;-72
2023/10/07 01:24:34;;;;;;;11.30;2.80;;;;;;;13.97;37.87;101293.04;107846;1283;22055;-57
2023/10/07 01:27:05;;;;;;;6.50;3.00;;;;;;;14.01;37.79;101295.29;107910;1282;22003;-72
2023/10/07 01:29:32;;;;;;;6.90;2.80;;;;;;;14.02;37.75;101293.86;107954;1283;22034;-71
2023/10/07 01:32:04;;;;;;;9.80;3.60;;;;;;;14.06;37.77;101293.30;107862;1283;21998;-71
2023/10/07 01:34:30;;;;;;;6.50;3.00;;;;;;;14.08;37.83;101290.27;107850;1283;22189;-72
2023/10/07 01:37:00;;;;;;;8.30;4.00;;;;;;;14.10;37.66;101291.48;107800;1289;22459;-58
2023/10/07 01:39:27;;;;;;;;;;;;;;;14.09;37.82;101292.02;107822;1283;21975;-71
2023/10/07 01:41:53;;;;;;;8.10;3.70;;;;;;;14.08;37.83;101287.45;107818;1279;22021;-57
2023/10/07 01:44:24;;;;;;;8.20;3.70;;;;;;;14.08;37.89;101289.90;107798;1289;21993;-71
2023/10/07 01:46:55;;;;;;;9.00;3.30;;;;;;;14.09;37.90;101287.96;107848;1283;21998;-57
2023/10/07 01:49:22;;;;;;;9.80;3.50;;;;;;;14.10;37.99;101283.54;107881;1289;21996;-71
2023/10/07 01:51:52;;;;;;;8.10;3.70;;;;;;;14.09;37.98;101287.08;107922;1282;21995;-72
2023/10/07 01:54:19;;;;;;;5.70;3.10;;;;;;;14.09;37.97;101288.66;107909;1283;21995;-71
2023/10/07 01:56:47;;;;;;;9.70;3.90;;;;;;;14.10;37.89;101284.59;107834;1286;21998;-71
2023/10/07 02:01:42;;;;;;;13.50;4.40;;;;;;;14.14;37.89;101287.00;107819;1283;21979;-70
2023/10/07 02:04:28;;;;;;;10.00;4.40;;;;;;;14.13;37.95;101284.55;107970;1283;21990;-58
2023/10/07 02:06:54;;;;;;;10.50;4.30;;;;;;;14.13;38.02;101282.27;107845;1283;23644;-71
2023/10/07 02:09:27;;;;;;;10.40;4.60;;;;;;;14.12;37.99;101278.20;107795;1289;21997;-58
2023/10/07 02:11:57;;;;;;;9.60;3.90;;;;;;;14.13;38.09;101278.91;107825;1289;21996;-58
2023/10/07 02:14:27;;;;;;;14.90;5.10;;;;;;;14.13;38.09;101276.44;107968;1289;21990;-59
2023/10/07 02:16:53;;;;;;;9.00;3.80;;;;;;;14.10;38.01;101272.95;107869;1283;22007;-71
2023/10/07 02:19:29;;;;;;;10.40;4.40;;;;;;;14.09;38.03;101273.67;107816;1282;22002;-59
2023/10/07 02:22:04;;;;;;;8.70;4.10;;;;;;;14.09;38.17;101272.08;107797;1289;22319;-60
2023/10/07 02:24:31;;;;;;;10.40;4.20;;;;;;;14.07;38.10;101268.23;107830;1282;22106;-72
2023/10/07 02:27:00;;;;;;;11.70;4.30;;;;;;;14.06;38.20;101264.88;107808;1289;21996;-73
2023/10/07 02:29:27;;;;;;;14.30;4.40;;;;;;;14.04;38.16;101260.85;107873;1279;23638;-58
2023/10/07 02:32:05;;;;;;;7.70;3.90;;;;;;;14.02;38.28;101262.63;107797;1289;22460;-58
2023/10/07 02:34:33;;;;;;;14.80;4.40;;;;;;;14.03;38.41;101266.16;107781;1289;22003;-72
2023/10/07 02:37:12;;;;;;;13.50;4.20;;;;;;;14.11;38.34;101263.75;107811;1289;23793;-72
2023/10/07 02:39:47;;;;;;;18.20;4.00;;;;;;;14.13;38.40;101262.32;107842;1289;21997;-59
2023/10/07 02:42:28;;;;;;;13.80;4.20;;;;;;;14.11;38.30;101257.05;107801;1289;21993;-58
2023/10/07 02:45:05;;;;;;;12.30;4.00;;;;;;;14.10;38.46;101257.77;107839;1289;22031;-72
2023/10/07 02:47:32;;;;;;;15.80;4.60;;;;;;;14.07;38.38;101252.16;107864;1287;22006;-72
2023/10/07 02:50:01;;;;;;;10.40;4.00;;;;;;;14.04;38.42;101252.36;107835;1289;22014;-69
2023/10/07 02:52:35;;;;;;;8.00;4.00;;;;;;;14.03;38.49;101249.38;107785;1283;23127;-59
2023/10/07 02:57:43;;;;;;;19.40;4.50;;;;;;;13.93;38.49;101234.16;107808;1282;22003;-58
2023/10/07 03:00:29;;;;;;;11.50;4.00;;;;;;;13.88;38.69;101232.63;107881;1289;21998;-59
2023/10/07 03:05:45;;;;;;;16.80;4.70;;;;;;;13.87;38.81;101228.06;107830;1289;22749;-58
2023/10/07 03:08:19;;;;;;;26.00;4.50;;;;;;;13.92;38.84;101227.46;107836;1282;22073;-58
2023/10/07 03:11:03;;;;;;;16.90;4.40;;;;;;;13.95;38.76;101220.54;107078;1289;1002521;-72
2023/10/07 03:13:37;;;;;;;15.20;4.40;;;;;;;13.98;38.84;101217.16;107856;1283;22003;-58
2023/10/07 03:24:13;;;;;;;10.60;4.20;;;;;;;14.01;38.83;101194.52;107844;1279;21998;-58
2023/10/07 03:26:45;;;;;;;8.60;4.20;;;;;;;13.99;38.74;101189.09;107833;1287;21995;-59
2023/10/07 03:29:29;;;;;;;13.40;4.10;;;;;;;13.95;38.81;101184.38;107888;1279;23773;-72
2023/10/07 03:31:55;;;;;;;14.70;4.70;;;;;;;13.89;38.94;101181.99;107826;1289;22002;-58
2023/10/07 03:34:20;;;;;;;23.20;4.20;;;;;;;13.85;38.99;101181.52;107829;1279;21999;-78
2023/10/07 03:37:14;;;;;;;35.00;5.50;;;;;;;13.82;39.01;101176.42;107826;1282;21998;-79
2023/10/07 03:42:19;;;;;;;11.60;4.40;;;;;;;13.83;39.20;101164.60;107799;1283;21997;-76
2023/10/07 03:44:49;;;;;;;13.40;4.30;;;;;;;13.85;38.98;101159.99;107855;1289;21993;-74
2023/10/07 03:47:15;;;;;;;11.90;3.50;;;;;;;13.86;38.85;101153.81;107798;1289;21975;-76
2023/10/07 03:49:41;;;;;;;11.80;3.90;;;;;;;13.85;38.87;101145.88;107910;1279;22192;-59
2023/10/07 03:52:08;;;;;;;11.30;3.90;;;;;;;13.87;38.71;101137.05;107952;1287;21996;-70
2023/10/07 03:54:40;;;;;;;12.50;3.30;;;;;;;13.86;38.73;101131.23;107825;1289;22004;-59
2023/10/07 03:57:07;;;;;;;22.10;4.10;;;;;;;13.86;38.82;101128.23;107916;1283;22456;-76
2023/10/07 03:59:34;;;;;;;21.90;4.60;;;;;;;13.85;38.79;101126.66;107988;1283;22047;-59
2023/10/07 04:04:51;;;;;;;18.50;4.60;;;;;;;13.79;38.84;101131.32;108280;1283;22009;-58
2023/10/07 04:07:21;;;;;;;24.30;5.10;;;;;;;13.71;38.98;101131.95;107841;1289;22007;-58
2023/10/07 04:09:46;;;;;;;18.30;4.30;;;;;;;13.67;38.99;101133.07;107796;1287;22000;-59
2023/10/07 04:12:14;;;;;;;22.00;4.40;;;;;;;13.65;39.08;101129.05;107797;1288;21992;-59
2023/10/07 04:14:42;;;;;;;26.60;4.70;;;;;;;13.64;39.01;101129.23;107868;1283;21996;-59
2023/10/07 04:17:14;;;;;;;34.50;7.70;;;;;;;13.62;39.12;101131.35;107838;1283;22002;-76
2023/10/07 04:19:52;;;;;;;35.50;6.60;;;;;;;13.61;39.21;101131.73;107873;1289;21995;-58
2023/10/07 04:22:17;;;;;;;48.80;6.40;;;;;;;13.63;39.27;101133.48;107843;1289;22461;-76
2023/10/07 04:24:44;;;;;;;19.90;4.50;;;;;;;13.66;39.32;101138.20;107851;1287;21996;-58
2023/10/07 04:27:20;;;;;;;28.40;3.90;;;;;;;13.69;39.38;101134.79;107919;1283;21995;-58
2023/10/07 04:29:52;;;;;;;22.50;3.70;;;;;;;13.71;39.39;101133.16;107849;1289;21996;-58
2023/10/07 04:32:22;;;;;;;29.30;5.20;;;;;;;13.73;39.33;101132.80;107848;1289;22006;-75
2023/10/07 04:35:06;;;;;;;36.30;6.70;;;;;;;13.74;39.42;101137.37;107938;1289;22293;-66
2023/10/07 04:37:47;;;;;;;44.20;6.70;;;;;;;13.77;39.45;101136.12;107857;1289;21998;-58
2023/10/07 04:40:53;;;;;;;33.40;4.80;;;;;;;13.77;39.37;101132.05;107797;1289;21991;-58
2023/10/07 04:44:20;;;;;;;35.10;5.60;;;;;;;13.79;39.46;101133.08;107940;1279;21997;-57
2023/10/07 04:45:56;;;;;;;32.80;5.00;;;;;;;13.82;39.49;101130.75;107698;1289;21990;-73
2023/10/07 04:48:31;;;;;;;28.40;4.80;;;;;;;13.85;39.51;101125.59;107772;1290;22000;-74
2023/10/07 04:51:03;;;;;;;23.40;4.00;;;;;;;13.89;39.47;101120.95;107777;1285;21993;-57
2023/10/07 04:53:39;;;;;;;16.40;4.30;;;;;;;13.94;39.54;101122.80;107749;1290;22471;-75
2023/10/07 04:56:09;;;;;;;19.40;3.60;;;;;;;14.00;39.71;101120.61;107724;1278;22006;-72
2023/10/07 04:58:34;;;;;;;14.20;3.10;;;;;;;14.05;39.76;101118.42;107798;1287;22030;-58
2023/10/07 05:01:06;;;;;;;19.70;3.70;;;;;;;14.13;39.76;101117.08;107774;1280;22061;-67
2023/10/07 05:03:33;;;;;;;21.60;4.20;;;;;;;14.22;39.80;101115.34;107691;1290;22003;-71
2023/10/07 05:05:59;;;;;;;28.90;3.60;;;;;;;14.31;39.76;101118.02;107754;1279;22002;-57
2023/10/07 05:08:27;;;;;;;19.30;6.70;;;;;;;14.38;39.82;101117.91;107780;1284;21994;-57
2023/10/07 05:10:55;;;;;;;16.60;4.20;;;;;;;14.46;39.79;101117.60;107784;1280;22003;-68
2023/10/07 05:13:21;;;;;;;26.20;4.60;;;;;;;14.55;39.79;101116.75;107799;1287;22111;-69
2023/10/07 05:15:46;;;;;;;19.30;4.50;;;;;;;14.63;39.82;101112.89;107683;1285;22030;-68
2023/10/07 05:18:16;;;;;;;19.80;4.00;;;;;;;14.70;39.80;101113.14;107773;1288;21993;-69
2023/10/07 05:20:46;;;;;;;12.80;4.30;;;;;;;14.79;39.87;101114.95;107834;1282;22001;-69
2023/10/07 05:23:14;;;;;;;22.10;6.70;;;;;;;14.87;39.80;101117.45;107832;1287;21993;-56
2023/10/07 05:25:48;;;;;;;15.30;3.80;;;;;;;14.98;39.81;101114.61;107788;1282;21995;-57
2023/10/07 05:28:17;;;;;;;12.20;3.30;;;;;;;15.09;39.94;101110.68;107748;1284;21997;-57
2023/10/07 05:30:54;;;;;;;19.20;3.40;;;;;;;15.21;40.06;101107.45;107846;1287;23063;-69
2023/10/07 05:33:27;;;;;;;14.80;3.20;;;;;;;15.38;40.05;101106.05;107769;1289;22001;-57
2023/10/07 05:36:11;;;;;;;11.90;3.10;;;;;;;15.55;40.30;101104.96;107790;1290;24063;-58
2023/10/07 05:38:38;;;;;;;13.30;3.60;;;;;;;15.75;40.31;101101.02;107790;1290;22019;-58
2023/10/07 05:41:06;;;;;;;12.50;3.00;;;;;;;15.91;40.30;101099.95;107799;1289;23142;-57
2023/10/07 05:43:32;;;;;;;8.90;2.70;;;;;;;16.09;40.36;101097.98;107771;1279;22017;-57
2023/10/07 05:45:59;;;;;;;9.90;4.60;;;;;;;16.25;40.48;101092.81;107820;1290;21997;-58
2023/10/07 05:48:25;;;;;;;12.10;3.30;;;;;;;16.42;40.18;101091.50;107757;1290;22020;-67
2023/10/07 05:50:54;;;;;;;15.30;3.60;;;;;;;16.58;40.08;101087.38;107791;1279;22190;-67
2023/10/07 05:53:21;;;;;;;13.40;3.60;;;;;;;16.73;40.12;101086.98;107828;1284;23063;-67
2023/10/07 05:55:47;;;;;;;9.60;4.10;;;;;;;16.88;40.02;101082.67;107767;1289;22000;-57
2023/10/07 05:58:14;;;;;;;9.80;3.10;;;;;;;17.01;40.03;101085.36;107766;1286;21998;-57
2023/10/07 06:00:40;;;;;;;10.90;2.60;;;;;;;17.13;40.08;101092.30;107849;1290;21994;-58
2023/10/07 06:03:07;;;;;;;12.30;3.00;;;;;;;17.26;40.01;101099.02;107781;1289;21947;-58
2023/10/07 06:05:37;;;;;;;10.10;2.50;;;;;;;17.41;40.14;101093.63;107791;1281;22001;-58
2023/10/07 06:08:04;;;;;;;;;;;;;;;17.59;39.97;101090.98;107867;1280;22016;-57
2023/10/07 06:10:33;;;;;;;12.70;2.60;;;;;;;17.78;39.68;101090.92;107816;1290;22000;-58
2023/10/07 06:13:00;;;;;;;12.30;2.80;;;;;;;17.98;39.63;101090.15;107830;1284;24093;-68
2023/10/07 06:15:26;;;;;;;8.00;2.70;;;;;;;18.19;39.53;101086.65;107825;1289;21990;-67
2023/10/07 06:17:51;;;;;;;9.10;2.30;;;;;;;18.42;39.32;101079.67;107812;1289;21994;-68
2023/10/07 06:20:26;;;;;;;18.10;3.10;;;;;;;18.64;39.32;101076.41;107799;1286;22008;-57
2023/10/07 06:22:55;;;;;;;10.50;2.70;;;;;;;18.88;39.21;101072.20;107775;1290;22002;-60
2023/10/07 06:25:30;;;;;;;12.70;3.00;;;;;;;19.13;39.00;101074.90;107747;1290;22498;-58
2023/10/07 06:27:59;;;;;;;7.70;2.00;;;;;;;19.38;38.83;101076.11;107759;1290;22002;-67
2023/10/07 06:30:26;;;;;;;6.00;1.70;;;;;;;19.61;38.44;101074.67;107789;1288;22091;-58
2023/10/07 06:33:02;;;;;;;12.20;2.30;;;;;;;19.85;38.13;101071.96;107821;1289;21997;-57
2023/10/07 06:35:27;;;;;;;13.90;2.00;;;;;;;20.08;37.56;101059.86;107771;1280;21996;-58
2023/10/07 06:37:57;;;;;;;7.10;2.30;;;;;;;20.26;37.24;101056.27;107779;1290;21998;-66
2023/10/07 06:40:28;;;;;;;17.30;2.80;;;;;;;20.46;36.94;101059.69;107865;1290;22008;-67
2023/10/07 06:42:56;;;;;;;6.60;1.80;;;;;;;20.63;36.57;101053.08;107872;1290;21999;-67
2023/10/07 06:45:22;;;;;;;13.20;2.60;;;;;;;20.79;35.88;101054.21;107818;1280;21996;-58
2023/10/07 06:47:48;;;;;;;7.60;1.90;;;;;;;20.95;35.77;101052.77;107805;1279;21996;-58
2023/10/07 06:50:19;;;;;;;7.40;1.90;;;;;;;21.16;35.55;101050.76;107761;1290;21988;-58
2023/10/07 06:52:47;;;;;;;9.10;2.00;;;;;;;21.33;35.41;101051.39;107802;1290;21994;-58
2023/10/07 06:55:15;;;;;;;6.80;2.20;;;;;;;21.47;35.25;101052.02;107762;1290;21996;-58
2023/10/07 06:57:43;;;;;;;7.50;1.90;;;;;;;21.59;35.03;101051.80;107790;1286;22019;-57
2023/10/07 07:00:22;;;;;;;11.10;2.60;;;;;;;21.76;34.91;101055.48;107769;1290;21994;-57
2023/10/07 07:02:57;;;;;;;21.90;2.40;;;;;;;21.91;34.32;101048.70;107785;1290;22000;-58
2023/10/07 07:05:23;;;;;;;6.40;1.80;;;;;;;22.04;34.25;101048.39;107780;1290;23468;-57
2023/10/07 07:07:52;;;;;;;5.60;1.90;;;;;;;22.13;34.01;101035.09;107819;1289;21993;-57
2023/10/07 07:10:27;;;;;;;3.80;1.40;;;;;;;22.19;34.19;101028.88;107816;1279;22018;-57
2023/10/07 07:13:03;;;;;;;6.40;2.20;;;;;;;22.32;33.90;101024.67;107794;1279;22012;-65
2023/10/07 07:15:36;;;;;;;10.40;2.30;;;;;;;22.45;33.86;101022.96;107895;1280;21998;-57
2023/10/07 07:18:08;;;;;;;17.40;3.00;;;;;;;22.52;33.80;101017.75;107893;1290;22036;-66
2023/10/07 07:20:48;;;;;;;11.10;1.90;;;;;;;22.54;33.77;101013.36;107790;1287;24385;-57
2023/10/07 07:23:16;;;;;;;5.70;1.70;;;;;;;22.60;33.68;101005.00;107813;1282;21991;-57
2023/10/07 07:25:49;;;;;;;4.40;1.40;;;;;;;22.70;33.63;100998.19;107822;1290;22003;-57
2023/10/07 07:28:17;;;;;;;12.10;2.40;;;;;;;22.78;33.41;100994.02;107771;1290;21997;-66
2023/10/07 07:30:44;;;;;;;10.10;2.40;;;;;;;22.89;33.40;100987.52;107795;1280;22005;-66
2023/10/07 07:33:15;;;;;;;6.00;2.00;;;;;;;23.03;33.29;100984.80;107863;1284;22004;-57
2023/10/07 07:35:44;;;;;;;12.10;2.80;;;;;;;23.13;33.23;100971.39;107812;1290;22000;-66
2023/10/07 07:38:32;;;;;;;8.40;1.80;;;;;;;23.25;32.95;100970.54;107808;1290;22017;-56
2023/10/07 07:43:51;;;;;;;6.00;1.80;;;;;;;23.55;32.67;100960.30;107804;1290;22007;-57
2023/10/07 07:48:44;;;;;;;8.70;2.60;;;;;;;23.70;32.29;100951.88;107747;1280;22011;-66
2023/10/07 07:51:11;;;;;;;5.80;2.00;;;;;;;23.72;32.26;100950.88;107839;1279;22463;-58
2023/10/07 07:53:40;;;;;;;7.50;2.10;;;;;;;23.77;32.04;100945.05;107801;1290;21998;-67
2023/10/07 07:56:08;;;;;;;3.90;1.60;;;;;;;23.83;31.89;100942.52;107828;1287;22052;-58
2023/10/07 07:58:37;;;;;;;7.00;1.80;;;;;;;23.89;31.56;100933.56;107810;1290;22004;-66
2023/10/07 08:01:07;;;;;;;4.20;1.70;;;;;;;23.95;31.44;100918.73;107782;1289;21992;-58
2023/10/07 08:03:38;;;;;;;19.00;3.10;;;;;;;23.98;31.35;100902.59;107769;1290;21986;-66
2023/10/07 08:06:04;;;;;;;20.60;2.40;;;;;;;24.04;31.44;100896.52;107794;1289;21996;-57
2023/10/07 08:08:30;;;;;;;6.80;2.20;;;;;;;24.11;31.14;100891.63;107761;1290;22008;-57
2023/10/07 08:10:58;;;;;;;13.00;2.40;;;;;;;24.20;30.95;100888.38;107869;1290;22015;-66
2023/10/07 08:13:24;;;;;;;6.80;1.90;;;;;;;24.30;30.61;100886.00;107779;1289;22016;-66
2023/10/07 08:15:54;;;;;;;14.60;2.30;;;;;;;24.41;30.79;100890.28;107794;1286;23330;-57
2023/10/07 08:18:28;;;;;;;9.00;2.10;;;;;;;24.54;30.82;100890.95;107787;1290;22001;-63
2023/10/07 08:21:13;;;;;;;9.20;1.90;;;;;;;24.64;30.50;100901.11;107759;1290;21992;-66
2023/10/07 08:23:44;;;;;;;10.30;2.40;;;;;;;24.69;30.53;100902.77;107826;1290;21999;-57
2023/10/07 08:26:13;;;;;;;4.50;1.90;;;;;;;24.76;30.53;100899.98;107854;1284;21993;-66
2023/10/07 08:28:47;;;;;;;11.60;2.20;;;;;;;24.84;30.44;100894.85;107912;1289;21993;-67
2023/10/07 08:31:18;;;;;;;7.90;2.00;;;;;;;24.91;30.24;100886.84;107871;1280;21992;-57
2023/10/07 08:34:09;;;;;;;12.80;2.40;;;;;;;24.97;30.01;100883.73;107886;1290;22028;-57
2023/10/07 08:36:36;;;;;;;;;;;;;;;25.03;29.96;100875.64;107774;1286;22022;-57
2023/10/07 08:39:06;;;;;;;9.70;2.40;;;;;;;25.13;30.15;100869.27;107886;1279;21996;-66
2023/10/07 08:41:31;;;;;;;11.50;2.60;;;;;;;25.23;30.18;100868.59;107872;1279;23119;-66
2023/10/07 08:44:14;;;;;;;16.20;3.00;;;;;;;25.27;29.76;100860.09;107820;1286;21998;-64
2023/10/07 08:46:53;;;;;;;7.40;2.60;;;;;;;25.24;29.51;100856.50;107773;1289;22038;-66
2023/10/07 08:49:26;;;;;;;6.00;2.30;;;;;;;25.26;29.68;100854.20;107849;1290;21999;-66
2023/10/07 08:51:56;;;;;;;13.40;2.10;;;;;;;25.33;29.73;100856.29;107737;1290;21999;-66
2023/10/07 08:54:37;;;;;;;8.90;2.10;;;;;;;25.43;29.74;100857.41;108194;1289;22030;-67
2023/10/07 08:57:10;;;;;;;15.80;2.40;;;;;;;25.50;29.74;100865.19;107746;1283;22006;-57
2023/10/07 08:59:37;;;;;;;5.30;2.10;;;;;;;25.53;29.54;100862.14;107796;1290;22000;-58
2023/10/07 09:02:04;;;;;;;10.70;2.40;;;;;;;25.58;29.56;100850.31;107742;1286;21980;-67
2023/10/07 09:04:33;;;;;;;15.10;2.90;;;;;;;25.69;29.61;100844.16;107778;1286;22001;-66
2023/10/07 09:07:00;;;;;;;23.00;3.00;;;;;;;25.85;29.38;100841.48;107765;1290;21999;-67
2023/10/07 09:09:35;;;;;;;21.50;4.10;;;;;;;26.00;29.40;100838.81;107775;1288;23644;-68
2023/10/07 09:12:08;;;;;;;30.60;4.00;;;;;;;26.17;29.41;100830.41;107764;1289;22011;-68
2023/10/07 09:14:34;;;;;;;11.00;2.60;;;;;;;26.31;29.19;100832.00;107838;1290;21993;-59
2023/10/07 09:17:04;;;;;;;21.90;3.80;;;;;;;26.42;29.22;100832.48;107822;1283;22034;-68
2023/10/07 09:19:30;;;;;;;13.10;2.20;;;;;;;26.55;29.03;100834.64;107764;1279;21998;-58
2023/10/07 09:21:57;;;;;;;23.80;3.30;;;;;;;26.65;28.91;100831.87;107767;1290;22031;-66
2023/10/07 09:24:24;;;;;;;44.10;5.20;;;;;;;26.69;28.90;100824.38;107755;1282;21999;-67
2023/10/07 09:26:57;;;;;;;9.10;2.50;;;;;;;26.73;28.71;100818.14;107788;1290;21993;-68
2023/10/07 09:29:24;;;;;;;8.00;2.50;;;;;;;26.83;28.81;100811.72;107799;1287;22001;-59
2023/10/07 09:31:56;;;;;;;16.20;2.90;;;;;;;26.97;28.71;100803.46;107803;1290;22004;-67
2023/10/07 09:37:17;;;;;;;10.00;2.70;;;;;;;27.24;28.25;100787.02;107826;1289;23688;-68
2023/10/07 09:39:44;;;;;;;17.50;2.40;;;;;;;27.32;28.57;100776.70;107787;1287;22001;-58
2023/10/07 09:47:38;;;;;;;7.90;3.00;;;;;;;27.71;28.65;100762.95;107749;1280;21981;-58
2023/10/07 09:50:19;;;;;;;12.30;3.20;;;;;;;27.85;28.53;100757.34;107764;1286;21960;-58
2023/10/07 09:52:52;;;;;;;11.20;3.50;;;;;;;27.92;28.03;100745.62;107773;1290;22038;-59
2023/10/07 09:55:38;;;;;;;15.60;3.60;;;;;;;27.93;27.88;100735.08;107833;1290;22004;-66
2023/10/07 09:58:17;;;;;;;15.00;2.90;;;;;;;27.95;27.90;100735.98;107808;1285;22001;-57
2023/10/07 10:01:02;;;;;;;42.30;5.60;;;;;;;28.00;27.80;100733.78;107783;1289;22006;-58
2023/10/07 10:03:59;;;;;;;22.50;3.60;;;;;;;28.03;27.89;100718.95;107725;1290;21985;-58
2023/10/07 10:06:47;;;;;;;44.40;5.20;;;;;;;28.10;28.10;100709.91;107768;1290;21999;-67
2023/10/07 10:09:14;;;;;;;13.30;3.60;;;;;;;28.23;28.02;100706.92;107773;1290;22001;-59
2023/10/07 10:16:45;;;;;;;16.50;3.40;;;;;;;28.38;28.13;100689.63;107700;1285;21997;-59
2023/10/07 10:19:21;;;;;;;20.90;3.10;;;;;;;28.52;27.96;100687.33;107764;1290;22013;-67
2023/10/07 10:21:47;;;;;;;10.80;3.20;;;;;;;28.63;27.59;100675.99;107711;1290;21998;-67
2023/10/07 10:24:16;;;;;;;25.50;3.70;;;;;;;28.72;27.59;100665.26;107690;1290;21995;-66
2023/10/07 10:26:44;;;;;;;16.50;3.20;;;;;;;28.83;27.58;100656.59;107726;1290;22002;-59
2023/10/07 10:29:16;;;;;;;9.60;2.90;;;;;;;28.90;27.49;100657.45;108577;1289;21996;-68
2023/10/07 10:31:52;;;;;;;19.40;3.10;;;;;;;28.98;27.42;100647.21;107723;1290;22016;-59
2023/10/07 10:34:20;;;;;;;15.10;3.50;;;;;;;29.01;27.39;100633.42;107819;1290;22464;-69
2023/10/07 10:36:49;;;;;;;14.70;4.00;;;;;;;29.01;27.45;100623.48;107774;1290;21999;-67
2023/10/07 10:39:18;;;;;;;15.70;3.00;;;;;;;29.01;27.39;100619.54;107790;1290;22037;-68
2023/10/07 10:41:45;;;;;;;22.30;3.60;;;;;;;29.11;27.18;100611.64;107777;1287;21978;-69
2023/10/07 10:44:11;;;;;;;26.00;3.60;;;;;;;29.15;26.67;100608.88;107767;1284;21993;-69
2023/10/07 10:46:44;;;;;;;19.30;3.30;;;;;;;29.16;26.83;100605.89;107845;1286;23678;-57
2023/10/07 10:49:20;;;;;;;15.90;2.90;;;;;;;29.21;27.03;100602.92;107772;1277;22451;-57
2023/10/07 10:51:47;;;;;;;13.40;3.10;;;;;;;29.22;26.87;100597.63;107758;1290;21996;-61
2023/10/07 10:54:18;;;;;;;10.60;3.00;;;;;;;29.25;27.00;100586.23;107781;1284;22016;-59
2023/10/07 10:56:57;;;;;;;12.80;3.50;;;;;;;29.34;27.20;100585.05;107805;1290;23492;-67
2023/10/07 10:59:42;;;;;;;15.10;3.80;;;;;;;29.43;27.00;100571.29;107780;1290;21995;-58
2023/10/07 11:02:12;;;;;;;14.50;4.00;;;;;;;29.48;26.75;100565.98;107834;1290;21992;-66
2023/10/07 11:04:38;;;;;;;11.10;2.80;;;;;;;29.57;26.54;100563.49;107815;1290;22076;-58
2023/10/07 11:07:07;;;;;;;14.90;3.40;;;;;;;29.72;26.57;100563.62;107779;1290;22004;-67
2023/10/07 11:09:37;;;;;;;19.20;3.30;;;;;;;29.86;26.33;100552.58;107765;1289;21993;-66
2023/10/07 11:12:09;;;;;;;15.00;3.50;;;;;;;29.93;26.32;100547.66;107764;1290;24402;-67
2023/10/07 11:14:40;;;;;;;13.90;3.50;;;;;;;29.94;26.19;100542.66;107636;1282;21996;-68
2023/10/07 11:17:09;;;;;;;19.70;3.40;;;;;;;29.97;26.18;100540.08;107801;1290;22001;-58
2023/10/07 11:19:44;;;;;;;11.20;3.10;;;;;;;30.03;25.91;100544.52;107786;1281;21999;-58
2023/10/07 11:22:12;;;;;;;14.70;3.60;;;;;;;30.06;25.94;100537.05;107785;1283;23741;-58
2023/10/07 11:24:39;;;;;;;10.90;3.30;;;;;;;30.07;25.86;100527.21;107841;1290;22118;-69
2023/10/07 11:27:08;;;;;;;10.80;3.40;;;;;;;30.03;25.66;100524.30;107531;1290;389598;-70
2023/10/07 11:29:35;;;;;;;12.40;3.10;;;;;;;30.02;25.76;100513.77;107865;1290;22780;-69
2023/10/07 11:32:08;;;;;;;10.50;3.40;;;;;;;29.99;25.72;100512.59;107777;1280;21960;-68
2023/10/07 11:34:39;;;;;;;11.80;3.30;;;;;;;29.95;25.70;100510.52;107818;1289;21997;-68
2023/10/07 11:37:09;;;;;;;12.60;3.00;;;;;;;29.95;25.92;100503.25;107749;1290;22002;-68
2023/10/07 11:39:45;;;;;;;9.50;3.30;;;;;;;29.97;25.80;100493.18;107789;1290;21992;-68
2023/10/07 11:42:21;;;;;;;15.00;3.70;;;;;;;29.99;25.79;100492.99;107730;1289;22007;-69
2023/10/07 11:44:55;;;;;;;8.00;3.00;;;;;;;30.03;25.55;100490.45;107763;1280;22139;-60
2023/10/07 11:47:22;;;;;;;8.70;2.80;;;;;;;30.01;25.41;100494.11;109902;1289;21935;-58
2023/10/07 11:49:48;;;;;;;12.90;3.20;;;;;;;30.00;25.35;100487.35;109943;1284;21904;-69
2023/10/07 11:52:20;;;;;;;11.50;3.30;;;;;;;30.07;25.50;100487.20;109942;1284;21902;-58
2023/10/07 11:54:46;;;;;;;22.70;5.80;;;;;;;30.16;25.44;100480.94;109943;1286;21966;-57
2023/10/07 11:57:13;;;;;;;17.50;3.50;;;;;;;30.24;25.16;100474.80;109935;1290;21907;-59
2023/10/07 11:59:41;;;;;;;8.50;3.00;;;;;;;30.30;25.35;100477.86;108497;1286;23146;-59
2023/10/07 12:02:10;;;;;;;9.90;3.00;;;;;;;30.35;25.41;100469.59;107823;1286;21982;-57
2023/10/07 12:04:44;;;;;;;19.80;3.70;;;;;;;30.34;25.32;100464.94;107801;1290;22139;-56
2023/10/07 12:07:14;;;;;;;12.20;3.20;;;;;;;30.25;25.09;100459.66;107932;1290;22002;-67
2023/10/07 12:09:40;;;;;;;11.30;3.70;;;;;;;30.21;25.51;100459.14;107819;1281;21998;-68
2023/10/07 12:12:08;;;;;;;19.50;3.60;;;;;;;30.26;25.18;100449.60;107758;1287;21983;-57
2023/10/07 12:14:34;;;;;;;9.20;3.00;;;;;;;30.26;25.11;100454.31;107791;1290;21973;-58